Time;durP1;ratioP1;P1;durP2;ratioP2;P2;SDS_P1;SDS_P2;PMS_P1;PMS_P2;Temp;Humidity;BMP_temperature;BMP_pressure;BME280_temperature;BME280_humidity;BME280_pressure;Samples;Min_cycle;Max_cycle;Signal;HPM_P1;HPM_P2
2022/05/08 00:03:36;;;;;;;2.80;2.45;;;;;;;10.93;66.69;96292.84;10338967;28;99890;-70
2022/05/08 00:08:39;;;;;;;4.90;3.40;;;;;;;10.80;67.66;96284.53;10339551;28;97084;-71
2022/05/08 00:13:42;;;;;;;4.60;3.30;;;;;;;10.52;68.11;96281.16;10348187;28;99673;-77
2022/05/08 00:18:47;;;;;;;3.60;3.17;;;;;;;10.41;68.77;96279.56;10351689;28;98917;-70
2022/05/08 00:23:49;;;;;;;5.07;3.70;;;;;;;10.31;69.31;96282.22;10340420;28;97201;-71
2022/05/08 00:28:52;;;;;;;4.30;3.35;;;;;;;10.13;69.49;96279.56;10345369;28;98756;-70
2022/05/08 00:33:56;;;;;;;3.55;3.05;;;;;;;9.96;70.73;96277.69;10341275;28;97609;-71
2022/05/08 00:38:59;;;;;;;5.50;3.17;;;;;;;9.87;70.55;96274.16;10341544;28;98139;-70
2022/05/08 00:44:04;;;;;;;3.67;2.90;;;;;;;9.88;70.49;96280.19;10340083;28;98604;-70
2022/05/08 00:49:08;;;;;;;5.03;3.20;;;;;;;9.93;70.47;96268.34;10343507;28;96793;-72
2022/05/08 00:54:11;;;;;;;3.50;3.00;;;;;;;9.96;69.63;96277.69;10341237;28;98646;-70
2022/05/08 00:59:14;;;;;;;3.60;3.00;;;;;;;9.83;70.42;96273.59;10342206;28;98653;-70
2022/05/08 01:04:19;;;;;;;4.22;2.95;;;;;;;9.89;70.78;96266.16;10339803;28;98644;-72
2022/05/08 01:09:22;;;;;;;4.20;3.17;;;;;;;9.91;70.27;96265.06;10349907;28;96902;-71
2022/05/08 01:14:25;;;;;;;3.45;2.60;;;;;;;9.88;70.03;96264.53;10342941;28;98670;-71
2022/05/08 01:19:29;;;;;;;4.43;3.50;;;;;;;9.95;70.18;96261.19;10339295;28;99120;-72
2022/05/08 01:24:33;;;;;;;5.03;3.87;;;;;;;9.76;70.89;96256.88;10338635;28;98437;-70
2022/05/08 01:29:36;;;;;;;4.15;3.50;;;;;;;9.45;71.83;96264.94;10337641;28;96907;-70
2022/05/08 01:34:39;;;;;;;5.32;4.18;;;;;;;9.29;72.42;96259.41;10342843;28;99178;-70
2022/05/08 01:39:43;;;;;;;3.90;3.45;;;;;;;9.23;72.60;96254.78;10347325;28;97655;-70
2022/05/08 01:44:46;;;;;;;4.25;3.58;;;;;;;9.17;72.14;96260.53;10352707;28;96807;-70
2022/05/08 01:49:49;;;;;;;5.78;3.75;;;;;;;9.10;72.70;96255.03;10341665;28;99239;-70
2022/05/08 01:54:53;;;;;;;4.40;3.70;;;;;;;9.09;72.66;96253.41;10334819;28;99139;-70
2022/05/08 01:59:56;;;;;;;5.63;3.60;;;;;;;9.06;72.96;96257.09;10338395;28;98712;-70
2022/05/08 02:05:00;;;;;;;3.97;3.50;;;;;;;9.05;72.90;96252.84;10337959;28;98845;-70
2022/05/08 02:10:05;;;;;;;4.35;3.50;;;;;;;9.02;73.12;96258.34;10342267;28;98496;-70
2022/05/08 02:15:10;;;;;;;4.72;3.97;;;;;;;8.89;73.45;96258.59;10337692;28;98483;-71
2022/05/08 02:20:13;;;;;;;4.53;3.30;;;;;;;8.90;72.71;96256.84;10342886;28;97650;-73
2022/05/08 02:25:17;;;;;;;4.40;3.30;;;;;;;8.91;72.32;96261.88;10340089;28;96961;-70
2022/05/08 02:30:21;;;;;;;5.90;4.27;;;;;;;8.83;73.10;96263.53;10341985;28;97394;-70
2022/05/08 02:35:24;;;;;;;5.65;4.18;;;;;;;8.71;73.30;96255.88;10342443;28;96880;-71
2022/05/08 02:40:28;;;;;;;4.30;3.90;;;;;;;8.69;73.38;96260.38;10343393;28;98475;-71
2022/05/08 02:45:31;;;;;;;6.18;4.25;;;;;;;8.66;73.27;96263.25;10343350;28;96740;-71
2022/05/08 02:50:35;;;;;;;7.55;4.68;;;;;;;8.63;73.18;96255.72;10344498;28;98808;-70
2022/05/08 03:01:02;;;;;;;4.45;4.05;;;;;;;8.40;73.19;96256.91;10341650;28;98609;-70
2022/05/08 03:06:06;;;;;;;4.25;3.47;;;;;;;8.37;73.49;96267.59;10346556;28;98683;-71
2022/05/08 03:11:29;;;;;;;5.20;4.70;;;;;;;8.32;73.03;96260.16;10346592;28;97652;-70
2022/05/08 03:16:32;;;;;;;5.05;3.92;;;;;;;8.31;73.09;96264.56;10330193;28;96871;-76
2022/05/08 03:21:36;;;;;;;4.82;3.75;;;;;;;8.27;73.13;96257.97;10344084;28;97859;-70
2022/05/08 03:26:41;;;;;;;6.93;5.05;;;;;;;8.06;74.26;96258.03;10341225;28;100005;-68
2022/05/08 03:31:43;;;;;;;6.70;5.07;;;;;;;8.00;74.60;96263.78;10341657;28;98366;-70
2022/05/08 03:36:47;;;;;;;5.53;4.50;;;;;;;8.07;73.98;96256.28;10338351;28;98057;-72
2022/05/08 03:41:51;;;;;;;8.70;6.68;;;;;;;8.16;73.93;96247.66;10348241;28;96962;-70
2022/05/08 03:46:53;;;;;;;8.00;5.03;;;;;;;8.09;74.44;96257.78;10333559;28;97604;-69
2022/05/08 03:51:56;;;;;;;9.40;6.95;;;;;;;8.12;74.48;96246.28;10339354;28;97011;-69
2022/05/08 03:57:01;;;;;;;5.80;4.93;;;;;;;8.20;74.64;96246.44;10352608;28;97052;-69
2022/05/08 04:02:04;;;;;;;5.75;5.15;;;;;;;8.22;73.65;96244.56;10350623;28;96933;-69
2022/05/08 04:07:07;;;;;;;7.22;5.65;;;;;;;8.30;73.70;96251.69;10350461;28;97308;-67
2022/05/08 04:12:11;;;;;;;7.85;5.18;;;;;;;8.33;73.22;96261.84;10342812;28;97258;-72
2022/05/08 04:17:14;;;;;;;6.27;4.23;;;;;;;8.20;74.06;96251.66;10340457;28;97054;-71
2022/05/08 04:27:38;;;;;;;8.98;6.63;;;;;;;7.87;75.80;96256.19;10338301;28;97447;-69
2022/05/08 04:32:41;;;;;;;8.63;7.73;;;;;;;8.02;75.58;96248.03;10344680;28;98370;-71
2022/05/08 04:37:44;;;;;;;8.35;6.38;;;;;;;8.05;75.00;96258.16;10345701;28;98446;-69
2022/05/08 04:42:48;;;;;;;8.95;7.10;;;;;;;8.03;75.97;96257.47;10342417;28;98491;-70
2022/05/08 04:47:52;;;;;;;8.23;7.38;;;;;;;8.08;76.19;96263.09;10339598;28;97631;-71
2022/05/08 04:52:54;;;;;;;7.30;6.53;;;;;;;8.20;75.83;96262.06;10347624;28;97681;-72
2022/05/08 04:57:59;;;;;;;7.82;6.47;;;;;;;8.22;75.78;96270.56;10342871;28;101767;-71
2022/05/08 05:03:02;;;;;;;8.30;6.20;;;;;;;8.19;76.19;96265.63;10346385;28;97767;-70
2022/05/08 05:08:06;;;;;;;7.70;6.60;;;;;;;8.33;76.06;96283.47;10344499;28;98658;-70
2022/05/08 05:13:10;;;;;;;6.47;5.77;;;;;;;8.44;75.55;96279.13;10335046;28;96842;-71
2022/05/08 05:18:13;;;;;;;7.68;6.20;;;;;;;8.61;75.80;96286.28;10339323;28;98673;-70
2022/05/08 05:23:16;;;;;;;9.25;7.22;;;;;;;8.85;75.66;96288.50;10348005;28;99123;-70
2022/05/08 05:28:20;;;;;;;9.10;8.07;;;;;;;9.25;75.85;96294.56;10332670;28;98750;-70
2022/05/08 05:33:23;;;;;;;10.13;8.02;;;;;;;9.65;75.35;96285.75;10342876;28;97730;-70
2022/05/08 05:38:26;;;;;;;11.13;8.95;;;;;;;9.86;75.06;96293.38;10352279;28;96745;-70
2022/05/08 05:43:30;;;;;;;8.77;7.25;;;;;;;10.16;74.68;96294.91;10339511;28;98676;-71
2022/05/08 05:48:36;;;;;;;9.03;7.90;;;;;;;10.37;74.57;96289.47;10338370;28;98665;-71
2022/05/08 05:53:39;;;;;;;10.32;9.15;;;;;;;10.61;74.33;96301.97;10356068;28;100912;-70
2022/05/08 05:58:43;;;;;;;9.63;8.60;;;;;;;10.79;74.23;96303.78;10344303;28;97917;-70
2022/05/08 06:03:46;;;;;;;11.40;9.27;;;;;;;10.96;73.79;96308.25;10342442;28;98796;-71
2022/05/08 06:08:49;;;;;;;9.63;8.60;;;;;;;11.06;73.86;96307.34;10339753;28;98957;-71
2022/05/08 06:13:53;;;;;;;9.43;8.40;;;;;;;11.14;73.78;96307.44;10346581;28;98486;-71
2022/05/08 06:18:56;;;;;;;11.00;8.82;;;;;;;11.18;73.46;96306.16;10334210;28;98391;-71
2022/05/08 06:23:59;;;;;;;10.70;8.52;;;;;;;11.34;73.62;96310.72;10345994;28;98710;-71
2022/05/08 06:29:03;;;;;;;9.88;8.45;;;;;;;11.49;72.91;96308.41;10342152;28;99052;-71
2022/05/08 06:34:06;;;;;;;11.67;9.67;;;;;;;11.54;73.00;96314.00;10338783;28;98790;-71
2022/05/08 06:39:10;;;;;;;9.95;8.95;;;;;;;11.65;72.32;96312.94;10334825;28;98577;-71
2022/05/08 06:44:14;;;;;;;10.68;8.88;;;;;;;11.79;72.57;96314.97;10334160;28;96967;-73
2022/05/08 06:49:17;;;;;;;9.20;8.30;;;;;;;11.93;72.52;96305.75;10330481;28;98734;-71
2022/05/08 06:54:20;;;;;;;9.02;8.13;;;;;;;12.04;72.18;96313.34;10339042;28;98078;-71
2022/05/08 07:04:44;;;;;;;9.55;8.55;;;;;;;12.31;72.12;96314.94;10338081;28;96833;-71
2022/05/08 07:09:47;;;;;;;10.00;8.48;;;;;;;12.61;71.45;96319.81;10334211;28;97817;-71
2022/05/08 07:14:53;;;;;;;8.82;7.53;;;;;;;12.87;71.30;96315.34;10341355;28;96849;-72
2022/05/08 07:19:56;;;;;;;9.07;8.18;;;;;;;13.08;70.50;96327.19;10329033;28;101304;-71
2022/05/08 07:25:00;;;;;;;10.75;7.65;;;;;;;13.24;70.77;96331.66;10336770;28;98596;-74
2022/05/08 07:30:04;;;;;;;8.68;7.78;;;;;;;13.41;70.28;96328.06;10331017;28;98491;-75
2022/05/08 07:40:29;;;;;;;8.75;6.85;;;;;;;13.67;68.64;96336.75;10337220;28;99161;-71
2022/05/08 07:45:33;;;;;;;7.93;7.13;;;;;;;13.79;68.13;96341.53;10346732;28;98615;-71
2022/05/08 07:50:37;;;;;;;8.17;7.37;;;;;;;13.82;68.20;96335.13;10345200;28;99292;-71
2022/05/08 07:55:40;;;;;;;8.52;7.43;;;;;;;13.88;68.00;96346.75;10340123;28;97351;-71
2022/05/08 08:00:44;;;;;;;8.02;6.93;;;;;;;14.14;67.51;96351.81;10344097;28;97161;-71
2022/05/08 08:05:48;;;;;;;8.50;7.47;;;;;;;14.44;67.48;96354.75;10343772;28;96758;-71
2022/05/08 08:11:11;;;;;;;7.53;6.30;;;;;;;14.65;65.69;96349.72;10350549;28;98701;-71
2022/05/08 08:16:16;;;;;;;7.77;6.80;;;;;;;14.63;66.21;96358.78;10346583;28;98531;-71
2022/05/08 08:21:19;;;;;;;;;;;;;;;14.77;66.18;96354.63;10349336;28;98916;-71
2022/05/08 08:26:22;;;;;;;6.60;6.00;;;;;;;15.04;65.59;96361.22;10336727;28;98883;-72
2022/05/08 08:31:26;;;;;;;8.43;6.18;;;;;;;15.36;63.90;96365.47;10344285;28;98640;-71
2022/05/08 08:36:29;;;;;;;5.93;5.40;;;;;;;15.52;63.18;96363.72;10336477;28;97864;-71
2022/05/08 08:41:36;;;;;;;5.10;4.57;;;;;;;15.59;63.45;96364.69;10348706;28;97744;-71
2022/05/08 08:52:04;;;;;;;6.88;5.43;;;;;;;15.83;62.59;96367.13;10182070;28;97114;-72
2022/05/08 08:57:07;;;;;;;6.75;5.13;;;;;;;16.25;62.27;96367.59;10190714;28;98126;-76
2022/05/08 09:02:17;;;;;;;5.90;5.05;;;;;;;16.30;61.19;96364.41;10186695;28;98892;-72
2022/05/08 09:07:42;;;;;;;5.78;4.90;;;;;;;16.44;61.04;96376.78;10194819;28;100493;-71
2022/05/08 09:13:02;;;;;;;4.93;4.40;;;;;;;16.50;60.82;96373.44;10189036;28;97498;-71
2022/05/08 09:18:13;;;;;;;4.47;4.07;;;;;;;16.66;60.49;96379.50;10190240;28;99680;-72
2022/05/08 09:23:17;;;;;;;;;;;;;;;16.82;60.58;96371.44;10192075;28;97704;-71
2022/05/08 09:28:21;;;;;;;4.13;3.72;;;;;;;16.83;59.29;96367.78;10285047;28;96959;-71
2022/05/08 09:33:27;;;;;;;7.27;4.17;;;;;;;16.89;58.89;96377.63;10342022;28;96887;-70
2022/05/08 09:38:44;;;;;;;3.95;3.40;;;;;;;16.76;58.04;96377.44;10338111;28;96729;-71
2022/05/08 09:43:48;;;;;;;3.75;3.33;;;;;;;16.79;57.88;96372.63;10336468;28;96725;-70
2022/05/08 09:48:57;;;;;;;2.60;2.40;;;;;;;16.78;57.74;96372.81;10338601;28;97023;-71
2022/05/08 09:54:01;;;;;;;3.75;2.83;;;;;;;16.69;57.37;96379.16;10337442;28;97146;-70
2022/05/08 09:59:07;;;;;;;2.63;2.42;;;;;;;16.61;56.84;96380.88;10338841;28;96755;-71
2022/05/08 10:04:12;;;;;;;2.90;2.60;;;;;;;16.56;57.04;96377.16;10342062;28;96854;-71
2022/05/08 10:14:41;;;;;;;3.00;2.70;;;;;;;16.74;57.12;96389.97;10352276;28;96967;-70
2022/05/08 10:19:46;;;;;;;3.47;2.80;;;;;;;17.02;56.32;96397.25;10350667;28;96843;-71
2022/05/08 10:24:53;;;;;;;;;;;;;;;17.08;56.52;96399.16;10344233;28;97253;-72
2022/05/08 10:30:33;;;;;;;4.38;2.40;;;;;;;17.01;56.38;96393.81;10344221;28;96884;-71
2022/05/08 10:35:37;;;;;;;3.55;2.30;;;;;;;16.99;56.17;96383.44;10380142;28;97185;-70
2022/05/08 10:40:40;;;;;;;2.55;1.98;;;;;;;17.13;55.49;96388.88;10340399;28;96909;-70
2022/05/08 10:45:43;;;;;;;2.50;2.30;;;;;;;17.47;55.08;96395.34;10342786;28;96965;-70
2022/05/08 10:50:50;;;;;;;2.35;2.15;;;;;;;17.72;54.16;96391.31;10338220;28;96789;-70
2022/05/08 10:55:58;;;;;;;2.35;2.15;;;;;;;17.82;53.72;96379.63;10341515;28;96797;-71
2022/05/08 11:01:03;;;;;;;3.00;2.28;;;;;;;17.89;53.37;96388.44;10343170;28;97863;-71
2022/05/08 11:06:08;;;;;;;2.30;2.10;;;;;;;17.98;52.46;96379.41;10343908;28;96748;-70
2022/05/08 11:11:12;;;;;;;3.45;1.88;;;;;;;17.94;52.83;96376.31;10338247;28;96825;-72
2022/05/08 11:16:33;;;;;;;2.80;2.58;;;;;;;18.18;52.06;96382.19;10340404;28;96827;-71
2022/05/08 11:21:39;;;;;;;3.88;3.08;;;;;;;18.47;51.37;96375.88;10347047;28;97116;-71
2022/05/08 11:26:42;;;;;;;2.40;2.20;;;;;;;18.42;51.81;96383.56;10349528;28;97585;-70
2022/05/08 11:36:04;;;;;;;3.50;2.75;;;;;;;18.56;51.48;96389.75;10337856;28;96834;-70
2022/05/08 11:37:19;;;;;;;3.05;2.40;;;;;;;18.73;50.21;96365.66;10341868;28;97304;-71
2022/05/08 11:42:23;;;;;;;1.98;1.77;;;;;;;18.93;50.23;96371.88;10341026;28;96946;-70
2022/05/08 11:47:26;;;;;;;2.28;1.77;;;;;;;19.12;49.57;96377.44;10340597;28;96686;-70
2022/05/08 11:52:31;;;;;;;2.10;1.90;;;;;;;19.23;49.20;96371.59;10351659;28;96694;-69
2022/05/08 11:57:42;;;;;;;3.17;2.88;;;;;;;19.31;48.58;96370.59;10356539;28;96749;-70
2022/05/08 12:02:46;;;;;;;3.28;2.88;;;;;;;19.23;49.36;96363.66;10338555;28;97090;-69
2022/05/08 12:07:52;;;;;;;2.67;1.80;;;;;;;19.39;48.38;96354.53;10350598;28;96979;-72
2022/05/08 12:13:05;;;;;;;2.40;1.70;;;;;;;19.72;48.28;96361.72;10346136;28;96860;-74
2022/05/08 12:18:09;;;;;;;1.95;1.75;;;;;;;20.04;48.30;96354.81;10341518;28;96848;-70
2022/05/08 12:23:16;;;;;;;2.30;2.10;;;;;;;20.18;48.57;96358.25;10333692;28;96898;-70
2022/05/08 12:28:20;;;;;;;2.83;1.50;;;;;;;20.01;47.15;96365.84;10343526;28;97130;-72
2022/05/08 12:33:23;;;;;;;1.58;1.48;;;;;;;19.88;47.77;96356.03;10362721;28;97010;-69
2022/05/08 12:38:28;;;;;;;1.70;1.50;;;;;;;19.89;46.64;96354.22;10342632;28;99504;-71
2022/05/08 12:43:31;;;;;;;2.10;1.90;;;;;;;19.86;46.68;96352.78;10347322;28;96717;-73
2022/05/08 12:48:34;;;;;;;4.50;2.42;;;;;;;19.75;47.02;96356.00;10348160;28;97953;-70
2022/05/08 12:53:39;;;;;;;3.20;1.95;;;;;;;20.04;45.99;96354.81;10354510;28;98975;-71
2022/05/08 13:04:04;;;;;;;3.05;2.00;;;;;;;19.99;45.61;96352.78;10372829;28;96909;-69
2022/05/08 13:09:09;;;;;;;2.92;2.05;;;;;;;19.93;45.96;96339.53;10352415;28;96904;-67
2022/05/08 13:14:12;;;;;;;2.50;2.30;;;;;;;20.19;46.60;96346.66;10356859;28;98336;-68
2022/05/08 13:19:15;;;;;;;3.15;2.00;;;;;;;20.60;45.32;96340.25;10360647;28;97079;-70
2022/05/08 13:24:19;;;;;;;2.67;1.70;;;;;;;20.46;44.41;96330.69;10372085;28;96893;-68
2022/05/08 13:29:22;;;;;;;6.70;6.07;;;;;;;20.53;45.21;96331.50;10363188;28;97078;-68
2022/05/08 13:34:25;;;;;;;2.53;2.00;;;;;;;20.66;45.08;96328.78;10370571;28;100445;-68
2022/05/08 13:39:30;;;;;;;2.75;1.70;;;;;;;20.47;45.26;96338.44;10372712;28;97087;-69
2022/05/08 13:44:33;;;;;;;;;;;;;;;20.37;45.91;96333.56;10371492;28;97584;-70
2022/05/08 13:49:36;;;;;;;2.35;1.95;;;;;;;20.39;45.23;96336.03;10368302;28;97031;-69
2022/05/08 13:54:43;;;;;;;2.23;1.80;;;;;;;20.55;44.23;96337.41;10358031;28;96778;-69
2022/05/08 13:59:46;;;;;;;2.53;1.75;;;;;;;20.48;44.08;96315.38;10342649;28;96915;-71
2022/05/08 14:04:49;;;;;;;1.70;1.60;;;;;;;20.71;43.80;96321.00;10347231;28;96885;-69
2022/05/08 14:09:55;;;;;;;2.00;1.80;;;;;;;20.93;43.84;96323.44;10339518;28;96959;-70
2022/05/08 14:14:58;;;;;;;2.95;1.83;;;;;;;21.06;43.92;96315.38;10342094;28;96710;-69
2022/05/08 14:20:02;;;;;;;2.13;1.90;;;;;;;21.06;44.06;96312.72;10338566;28;98326;-69
2022/05/08 14:25:08;;;;;;;2.30;2.10;;;;;;;20.81;44.18;96323.25;10346589;28;97741;-70
2022/05/08 14:30:12;;;;;;;4.40;2.92;;;;;;;20.84;43.90;96325.50;10347904;28;99118;-72
2022/05/08 14:40:38;;;;;;;3.30;2.42;;;;;;;20.82;43.96;96318.75;10354334;28;98278;-68
2022/05/08 14:45:41;;;;;;;2.50;2.22;;;;;;;20.68;44.14;96313.47;10360067;28;97204;-67
2022/05/08 14:50:44;;;;;;;2.58;2.15;;;;;;;20.63;44.03;96315.13;10344969;28;96967;-69
2022/05/08 14:55:50;;;;;;;2.27;1.83;;;;;;;20.90;44.01;96314.03;10346082;28;97925;-69
2022/05/08 15:00:53;;;;;;;2.05;1.85;;;;;;;21.40;42.66;96315.22;10351012;28;96988;-67
2022/05/08 15:05:56;;;;;;;2.42;2.03;;;;;;;21.19;43.06;96319.81;10338173;28;99635;-71
2022/05/08 15:11:01;;;;;;;2.10;1.90;;;;;;;20.93;43.25;96331.41;10351503;28;97989;-69
2022/05/08 15:16:04;;;;;;;2.03;1.83;;;;;;;20.69;43.47;96325.72;10351437;28;97119;-70
2022/05/08 15:21:07;;;;;;;2.55;2.15;;;;;;;20.43;43.61;96331.13;10344208;28;98477;-70
2022/05/08 15:26:13;;;;;;;2.00;1.80;;;;;;;20.40;44.21;96339.47;10345579;28;104961;-70
2022/05/08 15:31:15;;;;;;;2.13;1.92;;;;;;;20.40;43.90;96342.13;10348827;28;97216;-70
2022/05/08 15:36:18;;;;;;;2.20;2.00;;;;;;;20.50;43.54;96347.84;10343238;28;97877;-74
2022/05/08 15:41:23;;;;;;;2.88;1.80;;;;;;;20.41;44.07;96344.59;10336222;28;98745;-72
2022/05/08 15:46:25;;;;;;;;;;;;;;;21.09;43.86;96341.53;10346698;28;99652;-71
2022/05/08 15:51:29;;;;;;;2.72;2.25;;;;;;;21.39;42.66;96340.16;10348695;28;96912;-68
2022/05/08 15:56:34;;;;;;;2.27;2.00;;;;;;;21.63;42.51;96333.28;10344344;28;97824;-68
2022/05/08 16:01:42;;;;;;;2.35;1.70;;;;;;;21.87;42.35;96337.00;10346706;28;98187;-67
2022/05/08 16:06:45;;;;;;;1.60;1.50;;;;;;;22.83;41.46;96334.84;10353758;28;103771;-68
2022/05/08 16:11:49;;;;;;;2.83;2.07;;;;;;;23.34;39.77;96328.31;10354714;28;97348;-70
2022/05/08 16:27:36;;;;;;;2.47;2.05;;;;;;;25.03;37.30;96331.44;10338408;28;96967;-66
2022/05/08 16:32:39;;;;;;;2.28;1.92;;;;;;;24.99;37.69;96340.16;10351186;28;96999;-65
2022/05/08 16:37:42;;;;;;;2.30;2.10;;;;;;;25.23;37.06;96338.22;10353012;28;98546;-65
2022/05/08 16:42:49;;;;;;;2.57;1.97;;;;;;;24.99;37.30;96335.63;10350262;28;98331;-66
2022/05/08 16:47:52;;;;;;;1.88;1.77;;;;;;;24.88;37.24;96329.25;10347048;28;98568;-65
2022/05/08 16:52:56;;;;;;;;;;;;;;;24.99;38.21;96329.44;10346398;28;98551;-66
2022/05/08 16:58:00;;;;;;;;;;;;;;;25.28;38.64;96334.81;10350059;28;96831;-65
2022/05/08 17:03:03;;;;;;;2.50;2.03;;;;;;;24.67;37.54;96332.53;10347204;28;97949;-65
2022/05/08 17:08:07;;;;;;;2.50;2.30;;;;;;;24.64;37.03;96343.66;10357422;28;97748;-65
2022/05/08 17:13:11;;;;;;;2.80;2.03;;;;;;;24.46;36.51;96341.97;10352114;28;102470;-65
2022/05/08 17:18:14;;;;;;;2.60;2.08;;;;;;;24.05;37.10;96344.47;10357534;28;96979;-67
2022/05/08 17:23:17;;;;;;;2.87;2.37;;;;;;;23.70;38.02;96344.41;10345374;28;97854;-65
2022/05/08 17:33:42;;;;;;;2.80;2.45;;;;;;;23.09;38.98;96343.56;10342905;28;96899;-68
2022/05/08 17:38:45;;;;;;;3.03;2.30;;;;;;;22.76;38.95;96339.44;10350226;28;98726;-68
2022/05/08 17:43:49;;;;;;;3.00;2.70;;;;;;;22.32;39.55;96354.59;10345388;28;96907;-68
2022/05/08 17:48:52;;;;;;;2.45;2.25;;;;;;;21.22;41.32;96356.56;10354248;28;97086;-68
2022/05/08 17:53:55;;;;;;;3.15;2.65;;;;;;;20.25;42.45;96361.75;10354339;28;96913;-68
2022/05/08 17:58:59;;;;;;;2.92;2.70;;;;;;;19.63;43.94;96374.34;10340265;28;96895;-67
2022/05/08 18:09:22;;;;;;;3.85;3.13;;;;;;;18.54;45.98;96377.75;10339676;28;97888;-68
2022/05/08 18:14:26;;;;;;;3.38;2.70;;;;;;;18.15;47.15;96379.94;10349473;28;98932;-67
2022/05/08 18:19:29;;;;;;;4.05;2.88;;;;;;;18.01;47.59;96381.66;10343308;28;99260;-67
2022/05/08 18:24:32;;;;;;;3.22;2.63;;;;;;;17.75;48.26;96392.75;10343002;28;97283;-67
2022/05/08 18:29:36;;;;;;;2.92;2.50;;;;;;;17.52;48.94;96398.22;10353391;28;98035;-67
2022/05/08 18:34:39;;;;;;;4.07;3.03;;;;;;;17.27;49.88;96393.31;10339432;28;96864;-67
2022/05/08 18:39:42;;;;;;;3.20;2.90;;;;;;;17.07;50.09;96402.81;10342003;28;98766;-67
2022/05/08 18:44:47;;;;;;;3.75;3.35;;;;;;;16.94;50.64;96401.63;10349941;28;96789;-67
2022/05/08 18:49:50;;;;;;;3.58;3.20;;;;;;;16.79;50.71;96406.91;10340189;28;98184;-67
2022/05/08 18:54:53;;;;;;;4.75;3.22;;;;;;;16.62;51.17;96423.88;10345748;28;98956;-67
2022/05/08 18:59:58;;;;;;;4.50;3.30;;;;;;;16.44;51.87;96427.69;10345779;28;97855;-67
2022/05/08 19:05:02;;;;;;;4.93;3.05;;;;;;;16.29;52.45;96433.94;10343944;28;97784;-67
2022/05/08 19:10:07;;;;;;;3.80;3.40;;;;;;;16.27;52.48;96438.59;10338155;28;97548;-67
2022/05/08 19:15:13;;;;;;;3.63;3.10;;;;;;;16.16;53.09;96437.19;10346049;28;97993;-67
2022/05/08 19:20:16;;;;;;;4.65;3.15;;;;;;;16.04;52.93;96444.69;10338143;28;98315;-67
2022/05/08 19:25:18;;;;;;;5.30;3.08;;;;;;;15.88;53.64;96453.56;10343069;28;97678;-67
2022/05/08 19:30:24;;;;;;;4.70;3.20;;;;;;;15.76;54.19;96452.31;10349343;28;97564;-67
2022/05/08 19:40:48;;;;;;;5.57;3.50;;;;;;;15.65;53.88;96464.06;10346836;28;97800;-67
2022/05/08 19:45:52;;;;;;;6.20;5.07;;;;;;;15.58;54.38;96469.22;10367913;28;96912;-67
2022/05/08 19:50:56;;;;;;;;;;;;;;;15.57;54.12;96466.72;10352916;28;98042;-67
2022/05/08 19:55:59;;;;;;;3.90;3.50;;;;;;;15.48;54.90;96469.41;10350537;28;97261;-67
2022/05/08 20:01:04;;;;;;;6.50;5.75;;;;;;;15.44;55.17;96476.00;10356443;28;97004;-66
2022/05/08 20:06:06;;;;;;;9.70;8.32;;;;;;;15.43;54.89;96482.25;10355623;28;98435;-66
2022/05/08 20:11:10;;;;;;;5.30;4.80;;;;;;;15.45;55.66;96488.16;10348907;28;98155;-66
2022/05/08 20:16:14;;;;;;;4.78;4.32;;;;;;;15.42;56.25;96490.31;10345626;28;98518;-67
2022/05/08 20:26:38;;;;;;;4.43;3.60;;;;;;;15.43;55.87;96498.03;10354724;28;98828;-66
2022/05/08 20:31:42;;;;;;;4.07;3.60;;;;;;;15.38;56.19;96500.38;10347776;28;98180;-66
2022/05/08 20:36:45;;;;;;;5.63;4.28;;;;;;;15.34;55.98;96501.72;10357325;28;97308;-67
2022/05/08 20:41:49;;;;;;;4.30;3.65;;;;;;;15.36;56.12;96505.00;10359316;28;96945;-67
2022/05/08 20:46:53;;;;;;;8.23;6.60;;;;;;;15.23;57.09;96497.63;10348695;28;97743;-66
2022/05/08 20:51:57;;;;;;;;;;;;;;;15.14;56.55;96503.91;10341187;28;99272;-67
2022/05/08 20:57:00;;;;;;;5.05;3.90;;;;;;;15.16;57.52;96496.66;10342682;28;97059;-66
2022/05/08 21:02:05;;;;;;;6.72;6.05;;;;;;;15.23;57.25;96492.34;10356769;28;97199;-66
2022/05/08 21:12:29;;;;;;;7.50;6.72;;;;;;;15.27;57.45;96508.66;10347326;28;96887;-67
2022/05/08 21:17:33;;;;;;;5.35;4.57;;;;;;;15.29;58.09;96507.47;10343232;28;97749;-67
2022/05/08 21:22:36;;;;;;;9.27;7.97;;;;;;;15.27;58.14;96511.28;10351527;28;96931;-64
2022/05/08 21:27:40;;;;;;;7.07;5.63;;;;;;;15.32;57.47;96509.78;10366012;28;97221;-68
2022/05/08 21:32:45;;;;;;;4.40;4.00;;;;;;;15.39;57.85;96507.28;10360637;28;98039;-68
2022/05/08 21:37:48;;;;;;;6.75;4.15;;;;;;;15.41;57.18;96507.94;10361834;28;97905;-67
2022/05/08 21:42:50;;;;;;;4.18;3.83;;;;;;;15.38;57.41;96510.09;10366674;28;96879;-68
2022/05/08 21:47:55;;;;;;;5.63;4.38;;;;;;;15.37;57.87;96500.53;10364811;28;97059;-68
2022/05/08 21:52:57;;;;;;;4.13;3.78;;;;;;;15.34;57.55;96504.34;10363524;28;97058;-67
2022/05/08 21:58:00;;;;;;;5.07;4.18;;;;;;;15.36;57.53;96512.88;10360993;28;97520;-68
2022/05/08 22:03:04;;;;;;;4.63;4.22;;;;;;;15.32;58.42;96517.69;10365563;28;96773;-68
2022/05/08 22:08:11;;;;;;;4.30;3.90;;;;;;;15.36;57.71;96518.16;10355643;28;97023;-67
2022/05/08 22:13:13;;;;;;;5.22;4.25;;;;;;;15.26;57.86;96522.78;10357233;28;96960;-67
2022/05/08 22:23:38;;;;;;;4.90;4.40;;;;;;;15.01;58.03;96525.50;10357069;28;98335;-68
2022/05/08 22:28:40;;;;;;;5.30;4.53;;;;;;;14.88;58.67;96535.72;10353020;28;97029;-67
2022/05/08 22:33:45;;;;;;;4.97;4.53;;;;;;;14.82;59.15;96529.31;10350360;28;98805;-67
2022/05/08 22:38:47;;;;;;;4.97;4.33;;;;;;;14.84;58.78;96544.94;10367348;28;96857;-68
2022/05/08 22:43:52;;;;;;;4.53;4.13;;;;;;;14.82;58.21;96536.38;10362516;28;97147;-68
2022/05/08 22:48:56;;;;;;;5.57;4.85;;;;;;;14.74;59.59;96535.41;10342045;28;97866;-67
2022/05/08 22:53:59;;;;;;;5.63;4.67;;;;;;;14.66;59.68;96532.81;10341334;28;98844;-68
2022/05/08 22:59:01;;;;;;;5.43;4.93;;;;;;;14.52;60.51;96530.81;10341742;28;97352;-68
2022/05/08 23:04:08;;;;;;;4.72;4.25;;;;;;;14.49;61.28;96526.72;10347587;28;97726;-67
2022/05/08 23:09:10;;;;;;;5.05;4.55;;;;;;;14.49;61.32;96525.91;10343050;28;97658;-67
2022/05/08 23:15:23;;;;;;;4.93;4.32;;;;;;;14.51;60.77;96539.72;10337800;28;98003;-67
2022/05/08 23:20:07;;;;;;;5.47;4.55;;;;;;;14.39;61.32;96530.53;10335230;28;99200;-67
2022/05/08 23:25:14;;;;;;;5.97;4.28;;;;;;;14.35;61.33;96530.84;10339565;28;100998;-67
2022/05/08 23:30:22;;;;;;;4.50;4.00;;;;;;;14.31;61.41;96531.28;10333951;28;98360;-67
2022/05/08 23:35:26;;;;;;;5.25;4.32;;;;;;;14.28;61.28;96529.81;10344442;28;97941;-67
2022/05/08 23:40:33;;;;;;;5.70;5.17;;;;;;;14.21;61.82;96533.25;10348070;28;98353;-67
2022/05/08 23:45:37;;;;;;;5.78;5.05;;;;;;;14.19;62.88;96531.63;10332665;28;98091;-67
2022/05/08 23:50:41;;;;;;;4.72;4.32;;;;;;;14.21;62.43;96533.25;10335750;28;99182;-68
2022/05/08 23:55:44;;;;;;;5.53;4.83;;;;;;;14.15;63.02;96535.53;10333951;28;97876;-70
